• Join FlightAware (Why Join?)
  • Login
  • US Flag 
02:34AM EST


 

Airport Tracker/Info


-or-


 

Live Flight TrackerFlight Track Log ✈ N498QS ✈ 26-Apr-2013 ✈ KFXE - KDTS

Flight Track Log - Related Links

Times and Time Zones

All times are in EDT time to prevent confusion due to time zone crossing. See the N498QS flight status page for this flight to view local times or setup timezone preferences in your user account.

Time Position Orientation Groundspeed Altitude Reporting Facility
EDT Latitude Longitude Course Direction KTS MPH feet Rate Location/Type
11:41AM 26.1975 -80.1633 60° Northeast 156 180 700  Level Miami Center
11:42AM 26.2128 -80.1336 60° Northeast 209 241 1,500 2,220 Climbing Miami Center
11:43AM 26.2564 -80.1439 348° North 201 231 3,900 2,520 Climbing Miami Center
11:44AM 26.2528 -80.2181 267° West 271 312 6,500 2,580 Climbing Miami Center
11:45AM 26.2411 -80.2639 254° West 283 326 8,200 2,940 Climbing Miami Center
11:45AM 26.2300 -80.3008 251° West 291 335 9,500 2,580 Climbing Miami Center
11:46AM 26.2350 -80.3542 276° West 305 351 10,800 2,280 Climbing Miami Center
11:47AM 26.2494 -80.4450 280° West 339 390 13,200 2,400 Climbing Miami Center
11:48AM 26.2714 -80.5636 282° West 362 417 15,700 2,400 Climbing Miami Center
11:49AM 26.3025 -80.6597 290° West 362 417 18,000 1,800 Climbing Miami Center
11:50AM 26.3856 -80.7550 314° West 380 437 19,300 1,500 Climbing Miami Center
11:51AM 26.4675 -80.8158 326° Northwest 391 450 21,100 2,100 Climbing Miami Center
11:52AM 26.5678 -80.8911 326° Northwest 398 458 23,600 2,160 Climbing Miami Center
11:53AM 26.6494 -80.9567 324° Northwest 404 465 25,500 2,100 Climbing Miami Center
11:54AM 26.7456 -81.0297 326° Northwest 409 471 27,900 2,340 Climbing Miami Center
11:55AM 26.8372 -81.1053 324° Northwest 409 471 30,200 1,980 Climbing Miami Center
11:56AM 26.9269 -81.1806 323° Northwest 409 471 31,900 1,440 Climbing Miami Center
11:57AM 26.9967 -81.2881 306° West 409 471 33,100 1,260 Climbing Miami Center
11:58AM 27.0686 -81.3911 308° West 416 479 34,500 1,560 Climbing Miami Center
11:59AM 27.1581 -81.4692 322° Northwest 415 478 36,300 1,800 Climbing Miami Center
12:00PM 27.2686 -81.5414 330° Northwest 415 478 38,100 1,500 Climbing Miami Center
12:01PM 27.3667 -81.6061 330° Northwest 409 471 39,400 900 Climbing Miami Center
12:02PM 27.4586 -81.6661 330° Northwest 398 458 40,000 300 Climbing Miami Center
12:03PM 27.5403 -81.7186 330° Northwest 382 440 40,000  Level Miami Center
12:05PM 27.7744 -81.8725 330° Northwest 388 447 40,000  Level Jacksonville Center
12:06PM 27.8731 -81.9372 330° Northwest 393 452 40,000  Level Jacksonville Center
12:07PM 27.9633 -81.9997 329° Northwest 393 452 40,000  Level Jacksonville Center
12:08PM 28.0492 -82.0694 324° Northwest 388 447 40,000  Level Jacksonville Center
12:09PM 28.1372 -82.1464 322° Northwest 388 447 40,000  Level Jacksonville Center
12:10PM 28.2211 -82.2236 321° Northwest 388 447 40,000  Level Jacksonville Center
12:11PM 28.3031 -82.2986 321° Northwest 388 447 40,000  Level Jacksonville Center
12:12PM 28.3889 -82.3758 322° Northwest 388 447 40,000  Level Jacksonville Center
12:13PM 28.4725 -82.4511 322° Northwest 388 447 40,000  Level Jacksonville Center
12:14PM 28.5606 -82.5261 323° Northwest 393 452 40,000  Level Jacksonville Center
12:16PM 28.7175 -82.6725 321° Northwest 398 458 40,000  Level Jacksonville Center
12:17PM 28.8031 -82.7506 321° Northwest 393 452 40,000  Level Jacksonville Center
12:18PM 28.8886 -82.8286 321° Northwest 393 452 40,000  Level Jacksonville Center
12:19PM 28.9764 -82.9069 322° Northwest 398 458 40,000  Level Jacksonville Center
12:20PM 29.0619 -82.9853 321° Northwest 398 458 40,000  Level Jacksonville Center
12:21PM 29.1558 -83.0708 321° Northwest 398 458 40,000  Level Jacksonville Center
12:22PM 29.2392 -83.1494 321° Northwest 398 458 40,000  Level Jacksonville Center
12:23PM 29.3267 -83.2308 321° Northwest 398 458 40,000  Level Jacksonville Center
12:24PM 29.3869 -83.3336 304° West 390 449 40,000  Level Jacksonville Center
12:25PM 29.4364 -83.4458 297° West 390 449 40,000 -720 Level Jacksonville Center
12:26PM 29.4881 -83.5558 298° West 395 455 38,600 -1,620 Descending Jacksonville Center
12:27PM 29.5356 -83.6683 296° West 395 455 36,800 -1,800 Descending Jacksonville Center
12:28PM 29.5869 -83.7811 298° West 390 449 35,000 -1,380 Descending Jacksonville Center
12:29PM 29.6383 -83.8986 297° West 395 455 34,100 -540 Descending Jacksonville Center
12:30PM 29.6894 -84.0114 298° West 400 460 34,000 -60 Descending Jacksonville Center
12:31PM 29.7406 -84.1292 297° West 405 466 34,000  Level Jacksonville Center
12:32PM 29.7897 -84.2422 297° West 399 459 34,000  Level Jacksonville Center
12:33PM 29.8406 -84.3603 296° West 404 465 34,000  Level Jacksonville Center
12:34PM 29.8933 -84.4761 298° West 404 465 34,000 -240 Level Jacksonville Center
12:35PM 29.9442 -84.5919 297° West 404 465 33,600 -1,200 Descending Jacksonville Center
12:36PM 29.9989 -84.7178 297° West 410 472 31,600 -2,040 Descending Jacksonville Center
12:37PM 30.0575 -84.8411 299° West 423 487 29,600 -2,040 Descending Jacksonville Center
12:38PM 30.0994 -84.9644 291° West 429 494 27,600 -2,280 Descending Jacksonville Center
12:39PM 30.1267 -85.0875 284° West 413 475 25,100 -1,800 Descending Jacksonville Center
12:40PM 30.1514 -85.2106 283° West 395 455 24,000 -1,140 Descending Jacksonville Center
12:41PM 30.1744 -85.3264 283° West 389 448 22,900 -1,800 Descending Jacksonville Center
12:42PM 30.1783 -85.4394 272° West 389 448 20,400 -2,520 Descending Jacksonville Center
12:43PM 30.1953 -85.5408 281° West 368 423 17,900 -2,700 Descending Jacksonville Center
12:44PM 30.2011 -85.6517 274° West 352 405 15,000 -2,940 Descending Jacksonville Center
12:45PM 30.2072 -85.7528 274° West 338 389 12,000 -2,460 Descending Jacksonville Center
12:46PM 30.2175 -85.8539 277° West 327 376 10,100 -1,020 Descending Jacksonville Center
12:47PM 30.2278 -85.9528 277° West 327 376 10,000 -300 Descending Jacksonville Center
12:48PM 30.2358 -86.0517 275° West 320 368 9,500 -1,380 Descending Jacksonville Center
12:49PM 30.2458 -86.1458 277° West 308 354 7,300 -2,100 Descending Jacksonville Center
12:50PM 30.2561 -86.2350 278° West 297 342 5,400 -1,680 Descending Jacksonville Center
12:51PM 30.2664 -86.3244 278° West 292 336 4,000 -1,260 Descending Jacksonville Center
12:52PM 30.2786 -86.4067 280° West 274 315 2,900 -900 Descending Jacksonville Center
12:53PM 30.3183 -86.4756 304° West 244 281 2,300 -600 Descending Jacksonville Center
12:56PM 30.4000 -86.4667 337° Northwest  Level FlightAware Approximate
01:03PM 30.4000 -86.4715 337° Northwest  Level Estimated